sensor_id;sensor_type;location;lat;lon;timestamp;temperature;humidity
75363;DHT22;64122;51.988;5.892;2022-11-20T00:02:05;1.46;61.03
75363;DHT22;64122;51.988;5.892;2022-11-20T00:04:34;1.48;61.05
75363;DHT22;64122;51.988;5.892;2022-11-20T00:07:06;1.49;61.13
75363;DHT22;64122;51.988;5.892;2022-11-20T00:09:35;1.48;61.13
75363;DHT22;64122;51.988;5.892;2022-11-20T00:12:05;1.50;61.27
75363;DHT22;64122;51.988;5.892;2022-11-20T00:14:34;1.49;61.05
75363;DHT22;64122;51.988;5.892;2022-11-20T00:17:03;1.49;60.94
75363;DHT22;64122;51.988;5.892;2022-11-20T00:19:32;1.47;60.92
75363;DHT22;64122;51.988;5.892;2022-11-20T00:22:01;1.42;61.09
75363;DHT22;64122;51.988;5.892;2022-11-20T00:24:33;1.43;61.04
75363;DHT22;64122;51.988;5.892;2022-11-20T00:27:03;1.42;61.05
75363;DHT22;64122;51.988;5.892;2022-11-20T00:29:32;1.35;61.02
75363;DHT22;64122;51.988;5.892;2022-11-20T00:32:01;1.27;61.09
75363;DHT22;64122;51.988;5.892;2022-11-20T00:34:30;1.23;61.11
75363;DHT22;64122;51.988;5.892;2022-11-20T00:36:59;1.19;61.22
75363;DHT22;64122;51.988;5.892;2022-11-20T00:39:29;1.14;61.29
75363;DHT22;64122;51.988;5.892;2022-11-20T00:42:00;1.17;61.27
75363;DHT22;64122;51.988;5.892;2022-11-20T00:44:30;1.17;61.31
75363;DHT22;64122;51.988;5.892;2022-11-20T00:46:59;1.18;61.36
75363;DHT22;64122;51.988;5.892;2022-11-20T00:49:28;1.19;61.34
75363;DHT22;64122;51.988;5.892;2022-11-20T00:51:57;1.20;61.28
75363;DHT22;64122;51.988;5.892;2022-11-20T00:54:27;1.14;61.34
75363;DHT22;64122;51.988;5.892;2022-11-20T00:56:56;1.08;61.49
75363;DHT22;64122;51.988;5.892;2022-11-20T00:59:28;1.06;61.61
75363;DHT22;64122;51.988;5.892;2022-11-20T01:01:57;1.02;61.72
75363;DHT22;64122;51.988;5.892;2022-11-20T01:04:26;0.98;61.79
75363;DHT22;64122;51.988;5.892;2022-11-20T01:06:56;0.99;61.89
75363;DHT22;64122;51.988;5.892;2022-11-20T01:09:25;0.99;61.92
75363;DHT22;64122;51.988;5.892;2022-11-20T01:11:54;0.98;61.94
75363;DHT22;64122;51.988;5.892;2022-11-20T01:14:23;0.98;61.96
75363;DHT22;64122;51.988;5.892;2022-11-20T01:16:55;1.01;61.93
75363;DHT22;64122;51.988;5.892;2022-11-20T01:19:24;0.97;62.05
75363;DHT22;64122;51.988;5.892;2022-11-20T01:21:54;0.95;62.09
75363;DHT22;64122;51.988;5.892;2022-11-20T01:24:24;0.96;62.08
75363;DHT22;64122;51.988;5.892;2022-11-20T01:26:53;0.95;62.13
75363;DHT22;64122;51.988;5.892;2022-11-20T01:29:24;0.93;62.15
75363;DHT22;64122;51.988;5.892;2022-11-20T01:31:56;0.90;62.23
75363;DHT22;64122;51.988;5.892;2022-11-20T07:36:04;-3.26;76.70
75363;DHT22;64122;51.988;5.892;2022-11-20T07:38:34;-2.78;77.24
75363;DHT22;64122;51.988;5.892;2022-11-20T07:41:04;-2.29;76.83
75363;DHT22;64122;51.988;5.892;2022-11-20T07:43:33;-1.79;76.18
75363;DHT22;64122;51.988;5.892;2022-11-20T07:46:02;-1.40;75.36
75363;DHT22;64122;51.988;5.892;2022-11-20T07:48:32;-1.06;74.70
75363;DHT22;64122;51.988;5.892;2022-11-20T07:51:04;-0.76;74.06
75363;DHT22;64122;51.988;5.892;2022-11-20T07:53:33;-0.52;73.56
75363;DHT22;64122;51.988;5.892;2022-11-20T07:56:03;-0.31;73.06
75363;DHT22;64122;51.988;5.892;2022-11-20T07:58:32;-0.10;72.56
75363;DHT22;64122;51.988;5.892;2022-11-20T08:01:05;0.08;72.17
75363;DHT22;64122;51.988;5.892;2022-11-20T08:03:35;0.29;71.75
75363;DHT22;64122;51.988;5.892;2022-11-20T08:06:08;0.40;71.46
75363;DHT22;64122;51.988;5.892;2022-11-20T08:08:37;0.61;70.94
75363;DHT22;64122;51.988;5.892;2022-11-20T08:11:07;0.77;70.54
75363;DHT22;64122;51.988;5.892;2022-11-20T08:13:49;0.96;70.07
75363;DHT22;64122;51.988;5.892;2022-11-20T08:16:30;1.17;69.56
75363;DHT22;64122;51.988;5.892;2022-11-20T08:19:00;1.34;69.18
75363;DHT22;64122;51.988;5.892;2022-11-20T08:21:32;1.50;68.65
75363;DHT22;64122;51.988;5.892;2022-11-20T08:24:02;1.64;68.24
75363;DHT22;64122;51.988;5.892;2022-11-20T08:26:32;1.80;67.74
75363;DHT22;64122;51.988;5.892;2022-11-20T08:29:01;1.96;67.33
75363;DHT22;64122;51.988;5.892;2022-11-20T08:31:31;2.10;66.95
75363;DHT22;64122;51.988;5.892;2022-11-20T08:34:00;2.31;66.48
75363;DHT22;64122;51.988;5.892;2022-11-20T08:36:33;2.54;65.62
75363;DHT22;64122;51.988;5.892;2022-11-20T08:39:03;2.82;65.01
75363;DHT22;64122;51.988;5.892;2022-11-20T08:41:32;2.97;64.34
75363;DHT22;64122;51.988;5.892;2022-11-20T08:44:04;3.00;64.27
75363;DHT22;64122;51.988;5.892;2022-11-20T08:46:35;3.09;64.05
75363;DHT22;64122;51.988;5.892;2022-11-20T08:49:07;3.11;64.01
75363;DHT22;64122;51.988;5.892;2022-11-20T08:51:39;3.26;63.66
75363;DHT22;64122;51.988;5.892;2022-11-20T08:54:09;3.56;62.78
75363;DHT22;64122;51.988;5.892;2022-11-20T08:56:38;3.79;62.07
75363;DHT22;64122;51.988;5.892;2022-11-20T08:59:07;3.85;61.92
75363;DHT22;64122;51.988;5.892;2022-11-20T09:01:37;3.78;62.08
75363;DHT22;64122;51.988;5.892;2022-11-20T09:04:06;3.77;62.24
75363;DHT22;64122;51.988;5.892;2022-11-20T09:06:35;3.74;62.26
75363;DHT22;64122;51.988;5.892;2022-11-20T09:09:07;3.74;62.39
75363;DHT22;64122;51.988;5.892;2022-11-20T09:11:36;3.72;62.48
75363;DHT22;64122;51.988;5.892;2022-11-20T09:14:06;3.68;62.66
75363;DHT22;64122;51.988;5.892;2022-11-20T09:16:35;3.67;62.70
75363;DHT22;64122;51.988;5.892;2022-11-20T09:19:04;3.69;62.78
75363;DHT22;64122;51.988;5.892;2022-11-20T09:21:34;3.69;62.64
75363;DHT22;64122;51.988;5.892;2022-11-20T09:24:07;3.70;62.48
75363;DHT22;64122;51.988;5.892;2022-11-20T09:26:37;3.70;62.61
75363;DHT22;64122;51.988;5.892;2022-11-20T09:29:06;3.71;62.57
75363;DHT22;64122;51.988;5.892;2022-11-20T09:31:35;3.71;62.48
75363;DHT22;64122;51.988;5.892;2022-11-20T09:34:05;3.72;62.52
75363;DHT22;64122;51.988;5.892;2022-11-20T09:36:34;3.75;62.61
75363;DHT22;64122;51.988;5.892;2022-11-20T09:39:03;3.75;62.43
75363;DHT22;64122;51.988;5.892;2022-11-20T09:41:49;3.78;62.55
75363;DHT22;64122;51.988;5.892;2022-11-20T09:44:36;3.80;62.60
75363;DHT22;64122;51.988;5.892;2022-11-20T09:47:12;3.87;62.28
75363;DHT22;64122;51.988;5.892;2022-11-20T09:50:07;3.90;62.41
75363;DHT22;64122;51.988;5.892;2022-11-20T09:52:48;3.93;62.23
75363;DHT22;64122;51.988;5.892;2022-11-20T09:55:20;3.95;62.24
75363;DHT22;64122;51.988;5.892;2022-11-20T09:57:53;4.00;62.05
75363;DHT22;64122;51.988;5.892;2022-11-20T10:00:22;4.04;62.12
75363;DHT22;64122;51.988;5.892;2022-11-20T10:02:57;4.10;62.08
75363;DHT22;64122;51.988;5.892;2022-11-20T10:05:33;4.18;61.96
75363;DHT22;64122;51.988;5.892;2022-11-20T10:08:13;4.28;61.73
75363;DHT22;64122;51.988;5.892;2022-11-20T10:10:45;4.39;61.49
75363;DHT22;64122;51.988;5.892;2022-11-20T10:13:27;4.50;61.23
75363;DHT22;64122;51.988;5.892;2022-11-20T10:16:11;4.58;61.12
75363;DHT22;64122;51.988;5.892;2022-11-20T10:18:57;4.65;61.10
75363;DHT22;64122;51.988;5.892;2022-11-20T10:21:32;4.75;60.88
75363;DHT22;64122;51.988;5.892;2022-11-20T10:27:22;4.93;61.00
75363;DHT22;64122;51.988;5.892;2022-11-20T10:30:01;5.01;60.72
75363;DHT22;64122;51.988;5.892;2022-11-20T10:32:34;5.07;60.71
75363;DHT22;64122;51.988;5.892;2022-11-20T10:35:10;5.12;60.46
75363;DHT22;64122;51.988;5.892;2022-11-20T10:37:45;5.23;60.34
75363;DHT22;64122;51.988;5.892;2022-11-20T10:40:25;5.32;60.26
75363;DHT22;64122;51.988;5.892;2022-11-20T10:42:58;5.38;60.24
75363;DHT22;64122;51.988;5.892;2022-11-20T10:45:43;5.46;60.27
75363;DHT22;64122;51.988;5.892;2022-11-20T10:48:16;5.52;60.15
75363;DHT22;64122;51.988;5.892;2022-11-20T10:50:57;5.57;60.25
75363;DHT22;64122;51.988;5.892;2022-11-20T10:53:44;5.60;60.46
75363;DHT22;64122;51.988;5.892;2022-11-20T10:56:19;5.59;60.55
75363;DHT22;64122;51.988;5.892;2022-11-20T10:59:00;5.52;60.61
75363;DHT22;64122;51.988;5.892;2022-11-20T11:01:40;5.43;60.85
75363;DHT22;64122;51.988;5.892;2022-11-20T11:04:28;5.42;61.02
75363;DHT22;64122;51.988;5.892;2022-11-20T11:07:06;5.41;60.95
75363;DHT22;64122;51.988;5.892;2022-11-20T11:09:42;5.40;61.12
75363;DHT22;64122;51.988;5.892;2022-11-20T11:12:12;5.43;60.98
75363;DHT22;64122;51.988;5.892;2022-11-20T11:14:47;5.49;60.96
75363;DHT22;64122;51.988;5.892;2022-11-20T11:17:27;5.45;61.35
75363;DHT22;64122;51.988;5.892;2022-11-20T11:19:57;5.30;62.07
75363;DHT22;64122;51.988;5.892;2022-11-20T11:22:28;5.38;61.69
75363;DHT22;64122;51.988;5.892;2022-11-20T11:24:57;5.41;61.67
75363;DHT22;64122;51.988;5.892;2022-11-20T11:27:27;5.41;61.89
75363;DHT22;64122;51.988;5.892;2022-11-20T11:30:12;5.42;61.99
75363;DHT22;64122;51.988;5.892;2022-11-20T11:32:45;5.54;61.90
75363;DHT22;64122;51.988;5.892;2022-11-20T11:35:23;5.56;62.13
75363;DHT22;64122;51.988;5.892;2022-11-20T11:38:02;5.56;62.31
75363;DHT22;64122;51.988;5.892;2022-11-20T11:40:33;5.68;62.15
75363;DHT22;64122;51.988;5.892;2022-11-20T11:43:06;5.78;62.09
75363;DHT22;64122;51.988;5.892;2022-11-20T11:46:31;5.80;62.03
75363;DHT22;64122;51.988;5.892;2022-11-20T11:49:09;5.74;62.30
75363;DHT22;64122;51.988;5.892;2022-11-20T11:51:52;5.68;62.37
75363;DHT22;64122;51.988;5.892;2022-11-20T11:54:30;5.62;62.52
75363;DHT22;64122;51.988;5.892;2022-11-20T11:57:07;5.53;62.73
75363;DHT22;64122;51.988;5.892;2022-11-20T11:59:46;5.39;63.04
75363;DHT22;64122;51.988;5.892;2022-11-20T12:02:29;5.35;63.16
75363;DHT22;64122;51.988;5.892;2022-11-20T12:05:12;5.28;63.39
75363;DHT22;64122;51.988;5.892;2022-11-20T12:07:46;5.30;63.52
75363;DHT22;64122;51.988;5.892;2022-11-20T12:10:19;5.33;63.47
75363;DHT22;64122;51.988;5.892;2022-11-20T12:12:50;5.16;63.91
75363;DHT22;64122;51.988;5.892;2022-11-20T12:15:28;5.28;63.63
75363;DHT22;64122;51.988;5.892;2022-11-20T12:17:58;5.34;63.62
75363;DHT22;64122;51.988;5.892;2022-11-20T12:20:35;5.40;63.52
75363;DHT22;64122;51.988;5.892;2022-11-20T12:23:16;5.42;63.56
75363;DHT22;64122;51.988;5.892;2022-11-20T12:25:49;5.41;63.92
75363;DHT22;64122;51.988;5.892;2022-11-20T12:28:41;5.39;64.16
75363;DHT22;64122;51.988;5.892;2022-11-20T12:31:34;5.37;64.24
75363;DHT22;64122;51.988;5.892;2022-11-20T12:34:19;5.33;64.48
75363;DHT22;64122;51.988;5.892;2022-11-20T12:37:01;5.26;64.75
75363;DHT22;64122;51.988;5.892;2022-11-20T12:39:35;5.16;65.09
75363;DHT22;64122;51.988;5.892;2022-11-20T12:45:28;5.33;64.90
75363;DHT22;64122;51.988;5.892;2022-11-20T12:48:29;5.40;64.67
75363;DHT22;64122;51.988;5.892;2022-11-20T12:51:38;5.39;64.73
75363;DHT22;64122;51.988;5.892;2022-11-20T12:54:39;5.49;64.77
75363;DHT22;64122;51.988;5.892;2022-11-20T12:57:16;5.55;64.87
75363;DHT22;64122;51.988;5.892;2022-11-20T13:00:02;5.63;64.72
75363;DHT22;64122;51.988;5.892;2022-11-20T13:02:39;5.67;64.73
75363;DHT22;64122;51.988;5.892;2022-11-20T13:05:19;5.71;64.80
75363;DHT22;64122;51.988;5.892;2022-11-20T13:07:52;5.74;64.94
75363;DHT22;64122;51.988;5.892;2022-11-20T13:10:30;5.70;65.24
75363;DHT22;64122;51.988;5.892;2022-11-20T13:13:03;5.66;65.61
75363;DHT22;64122;51.988;5.892;2022-11-20T13:15:43;5.62;65.53
75363;DHT22;64122;51.988;5.892;2022-11-20T13:18:15;5.63;65.56
75363;DHT22;64122;51.988;5.892;2022-11-20T13:20:45;5.61;65.90
75363;DHT22;64122;51.988;5.892;2022-11-20T13:23:25;5.49;66.01
75363;DHT22;64122;51.988;5.892;2022-11-20T13:26:16;5.33;66.49
75363;DHT22;64122;51.988;5.892;2022-11-20T13:28:47;5.25;66.99
75363;DHT22;64122;51.988;5.892;2022-11-20T13:31:30;5.13;67.26
75363;DHT22;64122;51.988;5.892;2022-11-20T13:34:02;5.05;67.65
75363;DHT22;64122;51.988;5.892;2022-11-20T13:36:33;5.02;67.79
75363;DHT22;64122;51.988;5.892;2022-11-20T13:39:03;5.03;67.94
75363;DHT22;64122;51.988;5.892;2022-11-20T13:41:36;5.05;68.02
75363;DHT22;64122;51.988;5.892;2022-11-20T13:44:12;5.09;68.19
75363;DHT22;64122;51.988;5.892;2022-11-20T13:46:44;5.11;68.41
75363;DHT22;64122;51.988;5.892;2022-11-20T13:49:18;5.08;68.46
75363;DHT22;64122;51.988;5.892;2022-11-20T13:51:51;5.06;68.93
75363;DHT22;64122;51.988;5.892;2022-11-20T13:54:49;5.07;68.57
75363;DHT22;64122;51.988;5.892;2022-11-20T13:57:54;5.13;68.57
75363;DHT22;64122;51.988;5.892;2022-11-20T14:00:26;5.18;68.94
75363;DHT22;64122;51.988;5.892;2022-11-20T14:03:08;5.27;68.53
75363;DHT22;64122;51.988;5.892;2022-11-20T14:05:47;5.33;68.53
75363;DHT22;64122;51.988;5.892;2022-11-20T14:08:27;5.35;68.34
75363;DHT22;64122;51.988;5.892;2022-11-20T14:11:14;5.24;68.65
75363;DHT22;64122;51.988;5.892;2022-11-20T14:13:58;5.15;68.88
75363;DHT22;64122;51.988;5.892;2022-11-20T14:16:31;5.17;69.17
75363;DHT22;64122;51.988;5.892;2022-11-20T14:19:26;5.19;68.97
75363;DHT22;64122;51.988;5.892;2022-11-20T14:22:14;5.15;69.40
75363;DHT22;64122;51.988;5.892;2022-11-20T14:24:45;5.16;69.64
75363;DHT22;64122;51.988;5.892;2022-11-20T14:27:16;5.19;69.52
75363;DHT22;64122;51.988;5.892;2022-11-20T14:29:50;5.16;69.66
75363;DHT22;64122;51.988;5.892;2022-11-20T14:32:21;5.08;69.97
75363;DHT22;64122;51.988;5.892;2022-11-20T14:34:52;4.98;70.47
75363;DHT22;64122;51.988;5.892;2022-11-20T14:37:24;5.05;70.48
75363;DHT22;64122;51.988;5.892;2022-11-20T14:39:55;5.10;70.12
75363;DHT22;64122;51.988;5.892;2022-11-20T14:42:26;5.15;70.29
75363;DHT22;64122;51.988;5.892;2022-11-20T14:45:00;5.17;70.17
75363;DHT22;64122;51.988;5.892;2022-11-20T14:47:30;5.15;70.36
75363;DHT22;64122;51.988;5.892;2022-11-20T14:50:01;5.09;70.67
75363;DHT22;64122;51.988;5.892;2022-11-20T14:52:30;5.04;70.90
75363;DHT22;64122;51.988;5.892;2022-11-20T14:55:00;5.01;71.31
75363;DHT22;64122;51.988;5.892;2022-11-20T14:57:31;5.03;71.23
75363;DHT22;64122;51.988;5.892;2022-11-20T15:00:17;4.98;71.29
75363;DHT22;64122;51.988;5.892;2022-11-20T15:02:50;4.96;71.67
75363;DHT22;64122;51.988;5.892;2022-11-20T15:05:21;4.96;71.82
75363;DHT22;64122;51.988;5.892;2022-11-20T15:08:03;4.95;71.85
75363;DHT22;64122;51.988;5.892;2022-11-20T15:10:33;4.94;72.03
75363;DHT22;64122;51.988;5.892;2022-11-20T15:13:11;4.96;71.86
75363;DHT22;64122;51.988;5.892;2022-11-20T15:15:46;5.00;71.90
75363;DHT22;64122;51.988;5.892;2022-11-20T15:18:17;4.98;72.08
75363;DHT22;64122;51.988;5.892;2022-11-20T15:20:48;4.96;72.13
75363;DHT22;64122;51.988;5.892;2022-11-20T15:23:18;4.98;72.08
75363;DHT22;64122;51.988;5.892;2022-11-20T15:25:48;4.96;72.15
75363;DHT22;64122;51.988;5.892;2022-11-20T15:28:20;4.96;72.25
75363;DHT22;64122;51.988;5.892;2022-11-20T15:30:52;4.96;72.25
75363;DHT22;64122;51.988;5.892;2022-11-20T15:33:22;4.91;72.48
75363;DHT22;64122;51.988;5.892;2022-11-20T15:35:51;4.90;72.66
75363;DHT22;64122;51.988;5.892;2022-11-20T15:38:20;4.89;72.87
75363;DHT22;64122;51.988;5.892;2022-11-20T15:40:50;4.95;72.82
75363;DHT22;64122;51.988;5.892;2022-11-20T15:43:19;5.02;72.67
75363;DHT22;64122;51.988;5.892;2022-11-20T15:45:53;5.05;72.57
75363;DHT22;64122;51.988;5.892;2022-11-20T15:48:26;5.06;72.63
75363;DHT22;64122;51.988;5.892;2022-11-20T15:50:58;5.11;72.57
75363;DHT22;64122;51.988;5.892;2022-11-20T15:53:28;5.13;72.64
75363;DHT22;64122;51.988;5.892;2022-11-20T15:55:57;5.13;72.59
75363;DHT22;64122;51.988;5.892;2022-11-20T15:58:27;5.17;72.58
75363;DHT22;64122;51.988;5.892;2022-11-20T16:00:58;5.15;72.57
75363;DHT22;64122;51.988;5.892;2022-11-20T16:03:28;5.18;72.64
75363;DHT22;64122;51.988;5.892;2022-11-20T16:05:57;5.23;72.80
75363;DHT22;64122;51.988;5.892;2022-11-20T16:08:26;5.22;72.79
75363;DHT22;64122;51.988;5.892;2022-11-20T16:10:56;5.17;73.15
75363;DHT22;64122;51.988;5.892;2022-11-20T16:13:25;5.13;73.12
75363;DHT22;64122;51.988;5.892;2022-11-20T16:16:17;5.02;73.32
75363;DHT22;64122;51.988;5.892;2022-11-20T16:18:48;4.96;73.73
75363;DHT22;64122;51.988;5.892;2022-11-20T16:21:17;4.91;73.92
75363;DHT22;64122;51.988;5.892;2022-11-20T16:23:46;4.89;74.18
75363;DHT22;64122;51.988;5.892;2022-11-20T16:26:16;4.90;74.20
75363;DHT22;64122;51.988;5.892;2022-11-20T16:28:46;4.93;74.31
75363;DHT22;64122;51.988;5.892;2022-11-20T16:31:19;4.93;74.30
75363;DHT22;64122;51.988;5.892;2022-11-20T16:33:49;4.93;74.36
75363;DHT22;64122;51.988;5.892;2022-11-20T16:36:20;4.95;74.37
75363;DHT22;64122;51.988;5.892;2022-11-20T16:38:52;4.92;74.35
75363;DHT22;64122;51.988;5.892;2022-11-20T16:41:22;4.90;74.74
75363;DHT22;64122;51.988;5.892;2022-11-20T16:43:53;4.88;74.67
75363;DHT22;64122;51.988;5.892;2022-11-20T16:46:27;4.90;74.67
75363;DHT22;64122;51.988;5.892;2022-11-20T16:48:58;4.92;74.80
75363;DHT22;64122;51.988;5.892;2022-11-20T16:51:29;4.93;74.82
75363;DHT22;64122;51.988;5.892;2022-11-20T16:54:00;4.97;74.74
75363;DHT22;64122;51.988;5.892;2022-11-20T16:56:29;5.00;74.80
75363;DHT22;64122;51.988;5.892;2022-11-20T16:58:59;5.01;74.69
75363;DHT22;64122;51.988;5.892;2022-11-20T17:01:32;5.00;74.59
75363;DHT22;64122;51.988;5.892;2022-11-20T17:04:05;5.00;74.79
75363;DHT22;64122;51.988;5.892;2022-11-20T17:06:36;4.96;75.05
75363;DHT22;64122;51.988;5.892;2022-11-20T17:09:06;4.98;74.99
75363;DHT22;64122;51.988;5.892;2022-11-20T17:11:36;5.01;74.89
75363;DHT22;64122;51.988;5.892;2022-11-20T17:14:06;5.03;74.96
75363;DHT22;64122;51.988;5.892;2022-11-20T17:16:38;5.04;74.98
75363;DHT22;64122;51.988;5.892;2022-11-20T17:19:08;5.02;75.25
75363;DHT22;64122;51.988;5.892;2022-11-20T17:21:37;5.02;75.08
75363;DHT22;64122;51.988;5.892;2022-11-20T17:24:09;5.02;75.03
75363;DHT22;64122;51.988;5.892;2022-11-20T17:26:39;4.97;75.36
75363;DHT22;64122;51.988;5.892;2022-11-20T17:29:11;5.01;75.28
75363;DHT22;64122;51.988;5.892;2022-11-20T17:31:44;5.00;75.22
75363;DHT22;64122;51.988;5.892;2022-11-20T17:34:14;5.01;75.47
75363;DHT22;64122;51.988;5.892;2022-11-20T17:36:43;5.04;75.46
75363;DHT22;64122;51.988;5.892;2022-11-20T17:39:13;5.06;75.42
75363;DHT22;64122;51.988;5.892;2022-11-20T17:41:43;5.09;75.43
75363;DHT22;64122;51.988;5.892;2022-11-20T17:44:33;5.09;75.45
75363;DHT22;64122;51.988;5.892;2022-11-20T17:47:05;5.15;75.48
75363;DHT22;64122;51.988;5.892;2022-11-20T17:49:34;5.15;75.47
75363;DHT22;64122;51.988;5.892;2022-11-20T17:52:04;5.17;75.45
75363;DHT22;64122;51.988;5.892;2022-11-20T17:54:33;5.19;75.44
75363;DHT22;64122;51.988;5.892;2022-11-20T17:57:02;5.21;75.44
75363;DHT22;64122;51.988;5.892;2022-11-20T17:59:44;5.22;75.44
75363;DHT22;64122;51.988;5.892;2022-11-20T18:02:17;5.19;75.32
75363;DHT22;64122;51.988;5.892;2022-11-20T18:04:46;5.17;75.55
75363;DHT22;64122;51.988;5.892;2022-11-20T18:07:15;5.19;75.51
75363;DHT22;64122;51.988;5.892;2022-11-20T18:09:45;5.20;75.37
75363;DHT22;64122;51.988;5.892;2022-11-20T18:12:14;5.21;75.32
75363;DHT22;64122;51.988;5.892;2022-11-20T18:14:43;5.26;75.30
75363;DHT22;64122;51.988;5.892;2022-11-20T18:17:16;5.28;74.96
75363;DHT22;64122;51.988;5.892;2022-11-20T18:19:46;5.23;75.05
75363;DHT22;64122;51.988;5.892;2022-11-20T18:22:17;5.31;74.86
75363;DHT22;64122;51.988;5.892;2022-11-20T18:24:48;5.28;75.00
75363;DHT22;64122;51.988;5.892;2022-11-20T18:27:19;5.30;74.94
75363;DHT22;64122;51.988;5.892;2022-11-20T18:29:49;5.26;74.86
75363;DHT22;64122;51.988;5.892;2022-11-20T18:32:21;5.24;74.88
75363;DHT22;64122;51.988;5.892;2022-11-20T18:34:50;5.23;74.90
75363;DHT22;64122;51.988;5.892;2022-11-20T18:37:19;5.20;74.90
75363;DHT22;64122;51.988;5.892;2022-11-20T18:39:49;5.10;75.10
75363;DHT22;64122;51.988;5.892;2022-11-20T18:42:18;5.05;75.17
75363;DHT22;64122;51.988;5.892;2022-11-20T18:45:00;5.01;75.30
75363;DHT22;64122;51.988;5.892;2022-11-20T18:47:34;5.00;75.32
75363;DHT22;64122;51.988;5.892;2022-11-20T18:50:07;4.96;75.49
75363;DHT22;64122;51.988;5.892;2022-11-20T18:52:38;5.00;75.34
75363;DHT22;64122;51.988;5.892;2022-11-20T18:55:09;5.00;75.31
75363;DHT22;64122;51.988;5.892;2022-11-20T18:57:39;5.04;75.22
75363;DHT22;64122;51.988;5.892;2022-11-20T19:00:09;5.05;75.27
75363;DHT22;64122;51.988;5.892;2022-11-20T19:02:41;5.06;75.22
75363;DHT22;64122;51.988;5.892;2022-11-20T19:05:12;5.07;75.18
75363;DHT22;64122;51.988;5.892;2022-11-20T19:07:42;5.10;74.96
75363;DHT22;64122;51.988;5.892;2022-11-20T19:10:11;5.10;74.98
75363;DHT22;64122;51.988;5.892;2022-11-20T19:12:41;5.12;74.91
75363;DHT22;64122;51.988;5.892;2022-11-20T19:15:10;5.15;74.85
75363;DHT22;64122;51.988;5.892;2022-11-20T19:17:42;5.17;74.73
75363;DHT22;64122;51.988;5.892;2022-11-20T19:20:12;5.16;74.86
75363;DHT22;64122;51.988;5.892;2022-11-20T19:22:41;5.21;74.65
75363;DHT22;64122;51.988;5.892;2022-11-20T19:25:10;5.25;74.54
75363;DHT22;64122;51.988;5.892;2022-11-20T19:27:39;5.25;74.41
75363;DHT22;64122;51.988;5.892;2022-11-20T19:30:10;5.28;74.31
75363;DHT22;64122;51.988;5.892;2022-11-20T19:32:42;5.27;74.15
75363;DHT22;64122;51.988;5.892;2022-11-20T19:35:12;5.23;74.22
75363;DHT22;64122;51.988;5.892;2022-11-20T19:37:41;5.23;74.22
75363;DHT22;64122;51.988;5.892;2022-11-20T19:40:11;5.20;74.15
75363;DHT22;64122;51.988;5.892;2022-11-20T19:42:40;5.18;74.12
75363;DHT22;64122;51.988;5.892;2022-11-20T19:45:09;5.20;74.02
75363;DHT22;64122;51.988;5.892;2022-11-20T19:47:39;5.18;73.99
75363;DHT22;64122;51.988;5.892;2022-11-20T19:50:11;5.11;74.05
75363;DHT22;64122;51.988;5.892;2022-11-20T19:52:41;5.09;74.08
75363;DHT22;64122;51.988;5.892;2022-11-20T19:55:10;5.10;74.14
75363;DHT22;64122;51.988;5.892;2022-11-20T19:57:39;5.17;74.07
75363;DHT22;64122;51.988;5.892;2022-11-20T20:00:10;5.23;73.70
75363;DHT22;64122;51.988;5.892;2022-11-20T20:02:40;5.15;73.67
75363;DHT22;64122;51.988;5.892;2022-11-20T20:05:12;5.00;73.96
75363;DHT22;64122;51.988;5.892;2022-11-20T20:07:42;4.92;74.20
75363;DHT22;64122;51.988;5.892;2022-11-20T20:10:12;4.84;74.45
75363;DHT22;64122;51.988;5.892;2022-11-20T20:12:43;4.88;74.31
75363;DHT22;64122;51.988;5.892;2022-11-20T20:15:14;4.90;74.20
75363;DHT22;64122;51.988;5.892;2022-11-20T20:17:43;4.92;74.12
75363;DHT22;64122;51.988;5.892;2022-11-20T20:20:15;5.00;74.00
75363;DHT22;64122;51.988;5.892;2022-11-20T20:22:45;5.03;73.96
75363;DHT22;64122;51.988;5.892;2022-11-20T20:25:14;5.08;73.80
75363;DHT22;64122;51.988;5.892;2022-11-20T20:27:43;5.10;73.80
75363;DHT22;64122;51.988;5.892;2022-11-20T20:30:13;5.20;73.61
75363;DHT22;64122;51.988;5.892;2022-11-20T20:32:42;5.27;73.54
75363;DHT22;64122;51.988;5.892;2022-11-20T20:35:11;5.32;73.28
75363;DHT22;64122;51.988;5.892;2022-11-20T20:37:43;5.33;73.13
75363;DHT22;64122;51.988;5.892;2022-11-20T20:40:13;5.34;73.03
75363;DHT22;64122;51.988;5.892;2022-11-20T20:42:44;5.36;72.89
75363;DHT22;64122;51.988;5.892;2022-11-20T20:45:13;5.39;72.96
75363;DHT22;64122;51.988;5.892;2022-11-20T20:47:43;5.41;72.86
75363;DHT22;64122;51.988;5.892;2022-11-20T20:50:13;5.46;72.83
75363;DHT22;64122;51.988;5.892;2022-11-20T20:52:49;5.48;72.58
75363;DHT22;64122;51.988;5.892;2022-11-20T20:55:18;5.50;72.58
75363;DHT22;64122;51.988;5.892;2022-11-20T20:57:48;5.53;72.70
75363;DHT22;64122;51.988;5.892;2022-11-20T21:00:19;5.55;72.43
75363;DHT22;64122;51.988;5.892;2022-11-20T21:02:48;5.54;72.48
75363;DHT22;64122;51.988;5.892;2022-11-20T21:05:17;5.56;72.33
75363;DHT22;64122;51.988;5.892;2022-11-20T21:07:49;5.59;72.45
75363;DHT22;64122;51.988;5.892;2022-11-20T21:10:31;5.61;72.28
75363;DHT22;64122;51.988;5.892;2022-11-20T21:13:00;5.63;72.22
75363;DHT22;64122;51.988;5.892;2022-11-20T21:15:30;5.65;72.20
75363;DHT22;64122;51.988;5.892;2022-11-20T21:17:59;5.66;72.19
75363;DHT22;64122;51.988;5.892;2022-11-20T21:20:28;5.66;72.13
75363;DHT22;64122;51.988;5.892;2022-11-20T21:23:12;5.65;71.98
75363;DHT22;64122;51.988;5.892;2022-11-20T21:25:42;5.64;72.15
75363;DHT22;64122;51.988;5.892;2022-11-20T21:28:11;5.66;72.06
75363;DHT22;64122;51.988;5.892;2022-11-20T21:30:41;5.62;72.03
75363;DHT22;64122;51.988;5.892;2022-11-20T21:33:10;5.60;72.09
75363;DHT22;64122;51.988;5.892;2022-11-20T21:35:39;5.61;72.13
75363;DHT22;64122;51.988;5.892;2022-11-20T21:38:11;5.54;72.09
75363;DHT22;64122;51.988;5.892;2022-11-20T21:40:41;5.49;72.18
75363;DHT22;64122;51.988;5.892;2022-11-20T21:43:10;5.50;72.09
75363;DHT22;64122;51.988;5.892;2022-11-20T21:45:39;5.54;72.31
75363;DHT22;64122;51.988;5.892;2022-11-20T21:48:09;5.57;72.33
75363;DHT22;64122;51.988;5.892;2022-11-20T21:50:38;5.62;71.86
75363;DHT22;64122;51.988;5.892;2022-11-20T21:53:07;5.61;72.08
75363;DHT22;64122;51.988;5.892;2022-11-20T21:55:40;5.56;72.39
75363;DHT22;64122;51.988;5.892;2022-11-20T21:58:10;5.61;72.18
75363;DHT22;64122;51.988;5.892;2022-11-20T22:00:39;5.66;72.07
75363;DHT22;64122;51.988;5.892;2022-11-20T22:03:08;5.68;72.10
75363;DHT22;64122;51.988;5.892;2022-11-20T22:05:37;5.70;72.00
75363;DHT22;64122;51.988;5.892;2022-11-20T22:08:07;5.75;71.75
75363;DHT22;64122;51.988;5.892;2022-11-20T22:10:36;5.77;71.60
75363;DHT22;64122;51.988;5.892;2022-11-20T22:13:09;5.79;71.68
75363;DHT22;64122;51.988;5.892;2022-11-20T22:15:50;5.79;71.48
75363;DHT22;64122;51.988;5.892;2022-11-20T22:18:20;5.81;71.42
75363;DHT22;64122;51.988;5.892;2022-11-20T22:20:49;5.81;71.84
75363;DHT22;64122;51.988;5.892;2022-11-20T22:23:19;5.80;71.84
75363;DHT22;64122;51.988;5.892;2022-11-20T22:25:48;5.80;71.77
75363;DHT22;64122;51.988;5.892;2022-11-20T22:28:20;5.81;71.37
75363;DHT22;64122;51.988;5.892;2022-11-20T22:30:50;5.82;71.21